sensor_id;sensor_type;location;lat;lon;timestamp;P1;durP1;ratioP1;P2;durP2;ratioP2
67889;SDS011;54685;52.082;5.426;2022-11-25T00:01:23;11.32;;;3.45;;
67889;SDS011;54685;52.082;5.426;2022-11-25T00:03:52;19.77;;;3.55;;
67889;SDS011;54685;52.082;5.426;2022-11-25T00:06:22;13.45;;;3.00;;
67889;SDS011;54685;52.082;5.426;2022-11-25T00:08:52;22.73;;;4.20;;
67889;SDS011;54685;52.082;5.426;2022-11-25T00:11:21;18.67;;;3.72;;
67889;SDS011;54685;52.082;5.426;2022-11-25T00:13:48;19.05;;;3.17;;
67889;SDS011;54685;52.082;5.426;2022-11-25T00:16:16;11.90;;;2.90;;
67889;SDS011;54685;52.082;5.426;2022-11-25T00:18:45;15.13;;;2.72;;
67889;SDS011;54685;52.082;5.426;2022-11-25T00:21:14;24.92;;;3.72;;
67889;SDS011;54685;52.082;5.426;2022-11-25T00:23:43;18.92;;;3.13;;
67889;SDS011;54685;52.082;5.426;2022-11-25T00:26:11;25.42;;;3.88;;
67889;SDS011;54685;52.082;5.426;2022-11-25T00:28:40;21.77;;;3.78;;
67889;SDS011;54685;52.082;5.426;2022-11-25T00:31:10;20.90;;;3.92;;
67889;SDS011;54685;52.082;5.426;2022-11-25T00:33:38;14.80;;;3.53;;
67889;SDS011;54685;52.082;5.426;2022-11-25T00:36:06;18.83;;;3.13;;
67889;SDS011;54685;52.082;5.426;2022-11-25T00:39:06;26.30;;;3.53;;
67889;SDS011;54685;52.082;5.426;2022-11-25T00:41:37;21.95;;;3.55;;
67889;SDS011;54685;52.082;5.426;2022-11-25T00:44:22;26.00;;;3.50;;
67889;SDS011;54685;52.082;5.426;2022-11-25T00:47:04;22.23;;;4.03;;
67889;SDS011;54685;52.082;5.426;2022-11-25T00:49:31;19.95;;;3.85;;
67889;SDS011;54685;52.082;5.426;2022-11-25T00:51:58;18.50;;;3.50;;
67889;SDS011;54685;52.082;5.426;2022-11-25T00:54:26;15.23;;;2.92;;
67889;SDS011;54685;52.082;5.426;2022-11-25T00:56:53;24.10;;;3.50;;
67889;SDS011;54685;52.082;5.426;2022-11-25T00:59:20;28.00;;;3.83;;
67889;SDS011;54685;52.082;5.426;2022-11-25T01:01:46;20.85;;;3.30;;
67889;SDS011;54685;52.082;5.426;2022-11-25T01:04:14;16.55;;;3.72;;
67889;SDS011;54685;52.082;5.426;2022-11-25T01:06:41;19.88;;;3.58;;
67889;SDS011;54685;52.082;5.426;2022-11-25T01:09:09;23.10;;;3.70;;
67889;SDS011;54685;52.082;5.426;2022-11-25T01:11:37;28.90;;;4.15;;
67889;SDS011;54685;52.082;5.426;2022-11-25T01:14:05;26.25;;;4.47;;
67889;SDS011;54685;52.082;5.426;2022-11-25T01:16:32;17.27;;;3.40;;
67889;SDS011;54685;52.082;5.426;2022-11-25T01:18:59;16.38;;;3.38;;
67889;SDS011;54685;52.082;5.426;2022-11-25T01:21:27;17.77;;;3.08;;
67889;SDS011;54685;52.082;5.426;2022-11-25T01:23:59;20.85;;;3.00;;
67889;SDS011;54685;52.082;5.426;2022-11-25T01:26:27;27.75;;;3.88;;
67889;SDS011;54685;52.082;5.426;2022-11-25T01:28:56;20.95;;;3.88;;
67889;SDS011;54685;52.082;5.426;2022-11-25T01:31:28;21.75;;;3.13;;
67889;SDS011;54685;52.082;5.426;2022-11-25T01:33:58;13.27;;;2.97;;
67889;SDS011;54685;52.082;5.426;2022-11-25T01:36:27;21.35;;;4.00;;
67889;SDS011;54685;52.082;5.426;2022-11-25T01:38:55;23.00;;;3.85;;
67889;SDS011;54685;52.082;5.426;2022-11-25T01:41:24;29.50;;;3.85;;
67889;SDS011;54685;52.082;5.426;2022-11-25T01:44:13;26.30;;;3.55;;
67889;SDS011;54685;52.082;5.426;2022-11-25T01:52:23;21.75;;;3.58;;
67889;SDS011;54685;52.082;5.426;2022-11-25T01:55:02;18.13;;;3.90;;
67889;SDS011;54685;52.082;5.426;2022-11-25T01:57:47;21.02;;;3.85;;
67889;SDS011;54685;52.082;5.426;2022-11-25T02:00:19;18.85;;;3.70;;
67889;SDS011;54685;52.082;5.426;2022-11-25T02:02:47;17.98;;;3.90;;
67889;SDS011;54685;52.082;5.426;2022-11-25T02:05:17;19.17;;;4.10;;
67889;SDS011;54685;52.082;5.426;2022-11-25T02:07:47;20.92;;;3.63;;
67889;SDS011;54685;52.082;5.426;2022-11-25T02:10:18;26.00;;;3.95;;
67889;SDS011;54685;52.082;5.426;2022-11-25T02:12:50;20.13;;;3.13;;
67889;SDS011;54685;52.082;5.426;2022-11-25T02:15:18;15.68;;;2.97;;
67889;SDS011;54685;52.082;5.426;2022-11-25T02:17:45;17.83;;;3.35;;
67889;SDS011;54685;52.082;5.426;2022-11-25T02:20:13;18.85;;;3.83;;
67889;SDS011;54685;52.082;5.426;2022-11-25T02:25:28;19.85;;;3.47;;
67889;SDS011;54685;52.082;5.426;2022-11-25T02:28:08;16.67;;;3.63;;
67889;SDS011;54685;52.082;5.426;2022-11-25T02:30:41;28.45;;;4.35;;
67889;SDS011;54685;52.082;5.426;2022-11-25T02:33:09;21.58;;;3.35;;
67889;SDS011;54685;52.082;5.426;2022-11-25T02:35:37;17.73;;;3.50;;
67889;SDS011;54685;52.082;5.426;2022-11-25T02:40:46;10.75;;;2.90;;
67889;SDS011;54685;52.082;5.426;2022-11-25T02:43:17;24.00;;;3.50;;
67889;SDS011;54685;52.082;5.426;2022-11-25T02:48:29;21.88;;;3.15;;
67889;SDS011;54685;52.082;5.426;2022-11-25T02:51:18;20.02;;;3.92;;
67889;SDS011;54685;52.082;5.426;2022-11-25T02:53:46;22.70;;;3.95;;
67889;SDS011;54685;52.082;5.426;2022-11-25T02:56:18;29.38;;;3.67;;
67889;SDS011;54685;52.082;5.426;2022-11-25T02:58:48;25.60;;;4.03;;
67889;SDS011;54685;52.082;5.426;2022-11-25T03:01:15;9.40;;;2.67;;
67889;SDS011;54685;52.082;5.426;2022-11-25T03:03:42;17.60;;;2.97;;
67889;SDS011;54685;52.082;5.426;2022-11-25T03:06:09;22.77;;;3.47;;
67889;SDS011;54685;52.082;5.426;2022-11-25T03:08:36;20.67;;;3.58;;
67889;SDS011;54685;52.082;5.426;2022-11-25T03:11:06;23.48;;;3.40;;
67889;SDS011;54685;52.082;5.426;2022-11-25T03:13:33;16.00;;;3.03;;
67889;SDS011;54685;52.082;5.426;2022-11-25T03:16:01;14.23;;;3.03;;
67889;SDS011;54685;52.082;5.426;2022-11-25T03:18:28;22.40;;;3.97;;
67889;SDS011;54685;52.082;5.426;2022-11-25T03:20:55;19.23;;;3.75;;
67889;SDS011;54685;52.082;5.426;2022-11-25T03:23:23;20.92;;;3.78;;
67889;SDS011;54685;52.082;5.426;2022-11-25T03:25:52;16.75;;;4.00;;
67889;SDS011;54685;52.082;5.426;2022-11-25T03:28:19;23.52;;;4.35;;
67889;SDS011;54685;52.082;5.426;2022-11-25T03:30:46;20.17;;;3.25;;
67889;SDS011;54685;52.082;5.426;2022-11-25T03:33:13;17.90;;;3.03;;
67889;SDS011;54685;52.082;5.426;2022-11-25T03:35:40;21.25;;;3.35;;
67889;SDS011;54685;52.082;5.426;2022-11-25T03:38:07;22.42;;;3.70;;
67889;SDS011;54685;52.082;5.426;2022-11-25T03:40:35;27.60;;;3.80;;
67889;SDS011;54685;52.082;5.426;2022-11-25T03:43:03;22.73;;;4.13;;
67889;SDS011;54685;52.082;5.426;2022-11-25T03:45:30;18.55;;;3.20;;
67889;SDS011;54685;52.082;5.426;2022-11-25T03:48:00;19.95;;;3.35;;
67889;SDS011;54685;52.082;5.426;2022-11-25T03:50:27;16.45;;;2.72;;
67889;SDS011;54685;52.082;5.426;2022-11-25T03:52:54;19.23;;;3.40;;
67889;SDS011;54685;52.082;5.426;2022-11-25T03:55:20;16.13;;;3.17;;
67889;SDS011;54685;52.082;5.426;2022-11-25T03:57:48;28.33;;;3.42;;
67889;SDS011;54685;52.082;5.426;2022-11-25T04:00:16;18.42;;;3.40;;
67889;SDS011;54685;52.082;5.426;2022-11-25T04:02:43;14.25;;;2.88;;
67889;SDS011;54685;52.082;5.426;2022-11-25T04:05:12;18.27;;;3.10;;
67889;SDS011;54685;52.082;5.426;2022-11-25T04:07:39;12.23;;;2.65;;
67889;SDS011;54685;52.082;5.426;2022-11-25T04:10:07;16.85;;;3.15;;
67889;SDS011;54685;52.082;5.426;2022-11-25T04:12:34;17.80;;;2.97;;
67889;SDS011;54685;52.082;5.426;2022-11-25T04:15:17;8.75;;;2.28;;
67889;SDS011;54685;52.082;5.426;2022-11-25T04:17:49;12.23;;;2.72;;
67889;SDS011;54685;52.082;5.426;2022-11-25T04:20:16;14.93;;;2.90;;
67889;SDS011;54685;52.082;5.426;2022-11-25T04:22:49;10.95;;;2.38;;
67889;SDS011;54685;52.082;5.426;2022-11-25T04:25:18;17.55;;;4.85;;
67889;SDS011;54685;52.082;5.426;2022-11-25T04:27:45;16.65;;;3.40;;
67889;SDS011;54685;52.082;5.426;2022-11-25T04:30:14;13.30;;;2.13;;
67889;SDS011;54685;52.082;5.426;2022-11-25T04:32:42;6.53;;;1.80;;
67889;SDS011;54685;52.082;5.426;2022-11-25T04:35:11;7.38;;;1.92;;
67889;SDS011;54685;52.082;5.426;2022-11-25T04:37:42;10.00;;;1.77;;
67889;SDS011;54685;52.082;5.426;2022-11-25T04:40:09;8.55;;;1.60;;
67889;SDS011;54685;52.082;5.426;2022-11-25T04:42:36;6.63;;;1.30;;
67889;SDS011;54685;52.082;5.426;2022-11-25T04:45:12;5.07;;;1.40;;
67889;SDS011;54685;52.082;5.426;2022-11-25T04:47:51;7.10;;;1.73;;
67889;SDS011;54685;52.082;5.426;2022-11-25T04:50:20;5.22;;;1.45;;
67889;SDS011;54685;52.082;5.426;2022-11-25T04:53:08;9.50;;;1.65;;
67889;SDS011;54685;52.082;5.426;2022-11-25T04:55:37;8.68;;;1.60;;
67889;SDS011;54685;52.082;5.426;2022-11-25T04:58:09;4.63;;;1.60;;
67889;SDS011;54685;52.082;5.426;2022-11-25T05:00:38;7.20;;;1.50;;
67889;SDS011;54685;52.082;5.426;2022-11-25T05:03:06;7.80;;;1.50;;
67889;SDS011;54685;52.082;5.426;2022-11-25T05:05:36;5.90;;;1.30;;
67889;SDS011;54685;52.082;5.426;2022-11-25T05:08:04;7.25;;;1.65;;
67889;SDS011;54685;52.082;5.426;2022-11-25T05:10:31;9.15;;;1.27;;
67889;SDS011;54685;52.082;5.426;2022-11-25T05:12:58;5.70;;;1.35;;
67889;SDS011;54685;52.082;5.426;2022-11-25T05:15:25;6.50;;;1.38;;
67889;SDS011;54685;52.082;5.426;2022-11-25T05:17:53;4.10;;;1.00;;
67889;SDS011;54685;52.082;5.426;2022-11-25T05:20:34;7.53;;;1.30;;
67889;SDS011;54685;52.082;5.426;2022-11-25T05:23:01;8.15;;;1.42;;
67889;SDS011;54685;52.082;5.426;2022-11-25T05:25:28;8.15;;;1.45;;
67889;SDS011;54685;52.082;5.426;2022-11-25T05:28:07;4.57;;;1.10;;
67889;SDS011;54685;52.082;5.426;2022-11-25T05:30:34;6.93;;;1.40;;
67889;SDS011;54685;52.082;5.426;2022-11-25T05:33:01;7.63;;;2.13;;
67889;SDS011;54685;52.082;5.426;2022-11-25T05:35:28;9.18;;;2.00;;
67889;SDS011;54685;52.082;5.426;2022-11-25T05:37:54;4.80;;;1.40;;
67889;SDS011;54685;52.082;5.426;2022-11-25T05:40:21;8.45;;;1.52;;
67889;SDS011;54685;52.082;5.426;2022-11-25T05:42:55;6.78;;;1.70;;
67889;SDS011;54685;52.082;5.426;2022-11-25T05:45:27;10.77;;;1.87;;
67889;SDS011;54685;52.082;5.426;2022-11-25T05:47:54;9.48;;;2.15;;
67889;SDS011;54685;52.082;5.426;2022-11-25T05:50:24;10.32;;;2.10;;
67889;SDS011;54685;52.082;5.426;2022-11-25T05:53:13;7.40;;;1.80;;
67889;SDS011;54685;52.082;5.426;2022-11-25T05:55:43;6.88;;;1.58;;
67889;SDS011;54685;52.082;5.426;2022-11-25T05:58:22;4.30;;;1.70;;
67889;SDS011;54685;52.082;5.426;2022-11-25T06:00:52;10.30;;;1.65;;
67889;SDS011;54685;52.082;5.426;2022-11-25T06:03:27;6.63;;;1.75;;
67889;SDS011;54685;52.082;5.426;2022-11-25T06:05:55;4.57;;;1.40;;
67889;SDS011;54685;52.082;5.426;2022-11-25T06:08:22;7.25;;;1.85;;
67889;SDS011;54685;52.082;5.426;2022-11-25T06:10:48;7.05;;;1.92;;
67889;SDS011;54685;52.082;5.426;2022-11-25T06:13:15;9.35;;;1.80;;
67889;SDS011;54685;52.082;5.426;2022-11-25T06:15:43;6.10;;;1.58;;
67889;SDS011;54685;52.082;5.426;2022-11-25T06:18:14;6.32;;;1.75;;
67889;SDS011;54685;52.082;5.426;2022-11-25T06:20:42;6.07;;;1.88;;
67889;SDS011;54685;52.082;5.426;2022-11-25T06:23:09;4.93;;;1.75;;
67889;SDS011;54685;52.082;5.426;2022-11-25T06:25:37;8.02;;;1.88;;
67889;SDS011;54685;52.082;5.426;2022-11-25T06:28:04;8.65;;;1.80;;
67889;SDS011;54685;52.082;5.426;2022-11-25T06:30:43;7.97;;;2.08;;
67889;SDS011;54685;52.082;5.426;2022-11-25T06:33:23;5.65;;;2.10;;
67889;SDS011;54685;52.082;5.426;2022-11-25T06:35:50;15.35;;;2.45;;
67889;SDS011;54685;52.082;5.426;2022-11-25T06:38:17;6.07;;;2.03;;
67889;SDS011;54685;52.082;5.426;2022-11-25T06:40:44;7.03;;;2.33;;
67889;SDS011;54685;52.082;5.426;2022-11-25T06:43:11;9.65;;;2.53;;
67889;SDS011;54685;52.082;5.426;2022-11-25T06:45:37;7.43;;;2.55;;
67889;SDS011;54685;52.082;5.426;2022-11-25T06:48:04;6.95;;;2.28;;
67889;SDS011;54685;52.082;5.426;2022-11-25T06:50:31;7.63;;;2.40;;
67889;SDS011;54685;52.082;5.426;2022-11-25T06:52:59;5.43;;;2.50;;
67889;SDS011;54685;52.082;5.426;2022-11-25T06:55:26;7.35;;;2.45;;
67889;SDS011;54685;52.082;5.426;2022-11-25T06:57:53;9.15;;;2.03;;
67889;SDS011;54685;52.082;5.426;2022-11-25T07:00:40;7.65;;;2.30;;
67889;SDS011;54685;52.082;5.426;2022-11-25T07:03:06;8.68;;;2.10;;
67889;SDS011;54685;52.082;5.426;2022-11-25T07:05:33;6.97;;;2.38;;
67889;SDS011;54685;52.082;5.426;2022-11-25T07:08:00;10.07;;;2.80;;
67889;SDS011;54685;52.082;5.426;2022-11-25T07:10:27;10.13;;;2.60;;
67889;SDS011;54685;52.082;5.426;2022-11-25T07:12:53;5.45;;;2.25;;
67889;SDS011;54685;52.082;5.426;2022-11-25T07:15:20;8.48;;;2.60;;
67889;SDS011;54685;52.082;5.426;2022-11-25T07:17:47;8.23;;;2.83;;
67889;SDS011;54685;52.082;5.426;2022-11-25T07:20:13;9.70;;;2.60;;
67889;SDS011;54685;52.082;5.426;2022-11-25T07:22:40;5.60;;;2.60;;
67889;SDS011;54685;52.082;5.426;2022-11-25T07:25:07;6.93;;;2.40;;
67889;SDS011;54685;52.082;5.426;2022-11-25T07:27:34;10.10;;;3.17;;
67889;SDS011;54685;52.082;5.426;2022-11-25T07:30:01;10.57;;;3.35;;
67889;SDS011;54685;52.082;5.426;2022-11-25T07:32:47;7.68;;;2.60;;
67889;SDS011;54685;52.082;5.426;2022-11-25T07:35:14;11.13;;;3.10;;
67889;SDS011;54685;52.082;5.426;2022-11-25T07:37:41;8.55;;;2.97;;
67889;SDS011;54685;52.082;5.426;2022-11-25T07:40:08;9.43;;;2.90;;
67889;SDS011;54685;52.082;5.426;2022-11-25T07:42:35;5.00;;;2.53;;
67889;SDS011;54685;52.082;5.426;2022-11-25T07:45:02;10.02;;;3.75;;
67889;SDS011;54685;52.082;5.426;2022-11-25T07:47:42;11.75;;;3.20;;
67889;SDS011;54685;52.082;5.426;2022-11-25T07:50:09;9.50;;;3.58;;
67889;SDS011;54685;52.082;5.426;2022-11-25T07:52:36;8.23;;;3.30;;
67889;SDS011;54685;52.082;5.426;2022-11-25T07:55:05;9.27;;;3.55;;
67889;SDS011;54685;52.082;5.426;2022-11-25T07:57:32;12.18;;;3.25;;
67889;SDS011;54685;52.082;5.426;2022-11-25T07:59:58;10.70;;;3.47;;
67889;SDS011;54685;52.082;5.426;2022-11-25T08:02:26;11.02;;;3.22;;
67889;SDS011;54685;52.082;5.426;2022-11-25T08:04:53;8.80;;;3.15;;
67889;SDS011;54685;52.082;5.426;2022-11-25T08:07:19;13.52;;;3.67;;
67889;SDS011;54685;52.082;5.426;2022-11-25T08:09:46;10.45;;;3.10;;
67889;SDS011;54685;52.082;5.426;2022-11-25T08:12:13;8.30;;;3.03;;
67889;SDS011;54685;52.082;5.426;2022-11-25T08:14:40;14.65;;;3.55;;
67889;SDS011;54685;52.082;5.426;2022-11-25T08:17:06;9.27;;;3.35;;
67889;SDS011;54685;52.082;5.426;2022-11-25T08:19:33;10.05;;;3.13;;
67889;SDS011;54685;52.082;5.426;2022-11-25T08:22:02;9.80;;;3.70;;
67889;SDS011;54685;52.082;5.426;2022-11-25T08:24:28;7.35;;;3.47;;
67889;SDS011;54685;52.082;5.426;2022-11-25T08:26:55;9.40;;;3.08;;
67889;SDS011;54685;52.082;5.426;2022-11-25T08:29:23;11.27;;;3.35;;
67889;SDS011;54685;52.082;5.426;2022-11-25T08:31:50;10.57;;;3.30;;
67889;SDS011;54685;52.082;5.426;2022-11-25T08:34:18;16.10;;;4.70;;
67889;SDS011;54685;52.082;5.426;2022-11-25T08:36:51;13.73;;;3.30;;
67889;SDS011;54685;52.082;5.426;2022-11-25T08:39:18;9.02;;;3.38;;
67889;SDS011;54685;52.082;5.426;2022-11-25T08:42:06;12.63;;;3.78;;
67889;SDS011;54685;52.082;5.426;2022-11-25T08:44:34;9.38;;;3.40;;
67889;SDS011;54685;52.082;5.426;2022-11-25T08:47:01;13.82;;;3.60;;
67889;SDS011;54685;52.082;5.426;2022-11-25T08:49:28;7.85;;;3.78;;
67889;SDS011;54685;52.082;5.426;2022-11-25T08:52:01;12.82;;;3.35;;
67889;SDS011;54685;52.082;5.426;2022-11-25T08:54:28;10.80;;;3.67;;
67889;SDS011;54685;52.082;5.426;2022-11-25T08:56:55;8.88;;;3.45;;
67889;SDS011;54685;52.082;5.426;2022-11-25T08:59:22;13.38;;;3.58;;
67889;SDS011;54685;52.082;5.426;2022-11-25T09:01:50;12.73;;;3.40;;
67889;SDS011;54685;52.082;5.426;2022-11-25T09:04:17;11.60;;;2.90;;
67889;SDS011;54685;52.082;5.426;2022-11-25T09:06:44;8.73;;;3.20;;
67889;SDS011;54685;52.082;5.426;2022-11-25T09:09:11;12.32;;;3.30;;
67889;SDS011;54685;52.082;5.426;2022-11-25T09:11:38;11.13;;;3.58;;
67889;SDS011;54685;52.082;5.426;2022-11-25T09:14:04;16.73;;;3.28;;
67889;SDS011;54685;52.082;5.426;2022-11-25T09:16:31;6.63;;;2.92;;
67889;SDS011;54685;52.082;5.426;2022-11-25T09:18:58;8.43;;;3.10;;
67889;SDS011;54685;52.082;5.426;2022-11-25T09:21:25;11.93;;;3.03;;
67889;SDS011;54685;52.082;5.426;2022-11-25T09:23:52;13.15;;;3.42;;
67889;SDS011;54685;52.082;5.426;2022-11-25T09:26:21;9.95;;;3.28;;
67889;SDS011;54685;52.082;5.426;2022-11-25T09:31:20;9.10;;;3.10;;
67889;SDS011;54685;52.082;5.426;2022-11-25T09:33:48;9.68;;;3.28;;
67889;SDS011;54685;52.082;5.426;2022-11-25T09:36:15;13.18;;;3.55;;
67889;SDS011;54685;52.082;5.426;2022-11-25T09:38:45;22.63;;;4.20;;
67889;SDS011;54685;52.082;5.426;2022-11-25T09:47:38;10.20;;;2.50;;
67889;SDS011;54685;52.082;5.426;2022-11-25T09:56:11;9.15;;;3.03;;
67889;SDS011;54685;52.082;5.426;2022-11-25T09:58:49;10.80;;;3.55;;
67889;SDS011;54685;52.082;5.426;2022-11-25T10:01:21;10.77;;;3.10;;
67889;SDS011;54685;52.082;5.426;2022-11-25T10:03:56;7.13;;;2.58;;
67889;SDS011;54685;52.082;5.426;2022-11-25T10:06:34;13.02;;;3.13;;
67889;SDS011;54685;52.082;5.426;2022-11-25T10:09:12;10.13;;;3.35;;
67889;SDS011;54685;52.082;5.426;2022-11-25T10:14:27;8.20;;;2.92;;
67889;SDS011;54685;52.082;5.426;2022-11-25T10:17:11;10.82;;;3.13;;
67889;SDS011;54685;52.082;5.426;2022-11-25T10:23:07;10.07;;;3.47;;
67889;SDS011;54685;52.082;5.426;2022-11-25T10:25:58;9.13;;;2.75;;
67889;SDS011;54685;52.082;5.426;2022-11-25T10:28:30;10.48;;;2.75;;
67889;SDS011;54685;52.082;5.426;2022-11-25T10:31:16;11.35;;;3.33;;
67889;SDS011;54685;52.082;5.426;2022-11-25T10:33:49;10.90;;;3.10;;
67889;SDS011;54685;52.082;5.426;2022-11-25T10:36:25;13.25;;;3.78;;
67889;SDS011;54685;52.082;5.426;2022-11-25T10:38:59;11.30;;;3.70;;
67889;SDS011;54685;52.082;5.426;2022-11-25T10:41:44;11.25;;;3.95;;
67889;SDS011;54685;52.082;5.426;2022-11-25T10:44:33;6.57;;;3.20;;
67889;SDS011;54685;52.082;5.426;2022-11-25T10:47:18;10.82;;;3.88;;
67889;SDS011;54685;52.082;5.426;2022-11-25T10:50:06;8.82;;;3.72;;
67889;SDS011;54685;52.082;5.426;2022-11-25T10:52:41;12.15;;;3.38;;
67889;SDS011;54685;52.082;5.426;2022-11-25T10:55:15;11.50;;;4.00;;
67889;SDS011;54685;52.082;5.426;2022-11-25T10:57:47;11.35;;;3.72;;
67889;SDS011;54685;52.082;5.426;2022-11-25T11:00:33;13.00;;;4.40;;
67889;SDS011;54685;52.082;5.426;2022-11-25T11:03:14;10.68;;;3.80;;
67889;SDS011;54685;52.082;5.426;2022-11-25T11:05:51;11.07;;;3.85;;
67889;SDS011;54685;52.082;5.426;2022-11-25T11:08:20;8.73;;;3.05;;
67889;SDS011;54685;52.082;5.426;2022-11-25T11:13:37;7.38;;;3.58;;
67889;SDS011;54685;52.082;5.426;2022-11-25T11:16:12;13.35;;;4.35;;
67889;SDS011;54685;52.082;5.426;2022-11-25T11:18:48;9.77;;;3.53;;
67889;SDS011;54685;52.082;5.426;2022-11-25T11:21:24;10.55;;;3.70;;
67889;SDS011;54685;52.082;5.426;2022-11-25T11:23:55;9.38;;;3.42;;
67889;SDS011;54685;52.082;5.426;2022-11-25T11:26:24;10.25;;;3.70;;
67889;SDS011;54685;52.082;5.426;2022-11-25T11:28:57;10.80;;;3.95;;
67889;SDS011;54685;52.082;5.426;2022-11-25T11:31:28;12.00;;;3.63;;
67889;SDS011;54685;52.082;5.426;2022-11-25T11:37:16;12.55;;;3.60;;
67889;SDS011;54685;52.082;5.426;2022-11-25T11:40:12;11.80;;;4.07;;
67889;SDS011;54685;52.082;5.426;2022-11-25T11:48:32;12.45;;;3.45;;
67889;SDS011;54685;52.082;5.426;2022-11-25T11:51:25;11.57;;;3.95;;
67889;SDS011;54685;52.082;5.426;2022-11-25T11:59:14;13.68;;;3.85;;
67889;SDS011;54685;52.082;5.426;2022-11-25T12:10:10;12.55;;;2.97;;
67889;SDS011;54685;52.082;5.426;2022-11-25T12:21:12;10.52;;;2.70;;
67889;SDS011;54685;52.082;5.426;2022-11-25T12:27:02;9.48;;;2.80;;
67889;SDS011;54685;52.082;5.426;2022-11-25T12:29:43;9.40;;;2.35;;
67889;SDS011;54685;52.082;5.426;2022-11-25T12:37:37;15.23;;;3.25;;
67889;SDS011;54685;52.082;5.426;2022-11-25T12:40:23;12.88;;;2.90;;
67889;SDS011;54685;52.082;5.426;2022-11-25T12:42:55;16.90;;;3.28;;
67889;SDS011;54685;52.082;5.426;2022-11-25T12:45:31;13.30;;;2.75;;
67889;SDS011;54685;52.082;5.426;2022-11-25T12:47:58;10.63;;;2.45;;
67889;SDS011;54685;52.082;5.426;2022-11-25T12:50:34;11.63;;;2.75;;
67889;SDS011;54685;52.082;5.426;2022-11-25T12:53:19;13.85;;;2.78;;
67889;SDS011;54685;52.082;5.426;2022-11-25T12:56:05;8.93;;;2.50;;
67889;SDS011;54685;52.082;5.426;2022-11-25T12:58:59;21.35;;;2.67;;
67889;SDS011;54685;52.082;5.426;2022-11-25T13:01:57;14.82;;;2.92;;
67889;SDS011;54685;52.082;5.426;2022-11-25T13:04:55;14.25;;;2.35;;
67889;SDS011;54685;52.082;5.426;2022-11-25T13:07:52;10.70;;;2.10;;
67889;SDS011;54685;52.082;5.426;2022-11-25T13:11:37;12.35;;;2.33;;
67889;SDS011;54685;52.082;5.426;2022-11-25T13:16:18;12.15;;;2.38;;
67889;SDS011;54685;52.082;5.426;2022-11-25T13:18:48;8.88;;;2.05;;
67889;SDS011;54685;52.082;5.426;2022-11-25T13:21:16;16.92;;;3.40;;
67889;SDS011;54685;52.082;5.426;2022-11-25T13:23:45;14.20;;;2.42;;
67889;SDS011;54685;52.082;5.426;2022-11-25T13:29:06;11.90;;;2.33;;
67889;SDS011;54685;52.082;5.426;2022-11-25T13:31:56;13.88;;;3.30;;
67889;SDS011;54685;52.082;5.426;2022-11-25T13:34:28;12.60;;;2.78;;
67889;SDS011;54685;52.082;5.426;2022-11-25T13:37:00;9.82;;;2.38;;
67889;SDS011;54685;52.082;5.426;2022-11-25T13:39:46;10.32;;;2.22;;
67889;SDS011;54685;52.082;5.426;2022-11-25T13:42:17;12.13;;;2.38;;
67889;SDS011;54685;52.082;5.426;2022-11-25T13:44:58;11.50;;;2.90;;
67889;SDS011;54685;52.082;5.426;2022-11-25T13:47:39;10.52;;;2.38;;
67889;SDS011;54685;52.082;5.426;2022-11-25T13:52:48;9.95;;;2.47;;
67889;SDS011;54685;52.082;5.426;2022-11-25T13:55:34;20.23;;;2.80;;
67889;SDS011;54685;52.082;5.426;2022-11-25T13:58:04;18.00;;;3.53;;
67889;SDS011;54685;52.082;5.426;2022-11-25T14:03:48;13.80;;;2.45;;
67889;SDS011;54685;52.082;5.426;2022-11-25T14:08:40;15.38;;;2.53;;
67889;SDS011;54685;52.082;5.426;2022-11-25T14:16:57;19.40;;;3.10;;
67889;SDS011;54685;52.082;5.426;2022-11-25T14:25:23;18.07;;;3.53;;
67889;SDS011;54685;52.082;5.426;2022-11-25T14:27:56;13.15;;;3.00;;
67889;SDS011;54685;52.082;5.426;2022-11-25T14:30:44;11.90;;;2.17;;
67889;SDS011;54685;52.082;5.426;2022-11-25T14:33:22;21.17;;;2.65;;
67889;SDS011;54685;52.082;5.426;2022-11-25T14:36:05;14.32;;;2.35;;
67889;SDS011;54685;52.082;5.426;2022-11-25T14:38:41;15.63;;;2.63;;
67889;SDS011;54685;52.082;5.426;2022-11-25T14:41:12;15.32;;;3.00;;
67889;SDS011;54685;52.082;5.426;2022-11-25T14:43:47;14.55;;;2.53;;
67889;SDS011;54685;52.082;5.426;2022-11-25T14:46:20;18.08;;;2.88;;
67889;SDS011;54685;52.082;5.426;2022-11-25T14:48:58;15.43;;;3.17;;
67889;SDS011;54685;52.082;5.426;2022-11-25T14:51:35;15.77;;;2.60;;
67889;SDS011;54685;52.082;5.426;2022-11-25T14:54:07;14.93;;;3.28;;
67889;SDS011;54685;52.082;5.426;2022-11-25T14:56:35;24.88;;;3.35;;
67889;SDS011;54685;52.082;5.426;2022-11-25T14:59:02;20.70;;;3.92;;
67889;SDS011;54685;52.082;5.426;2022-11-25T15:01:30;15.15;;;4.32;;
67889;SDS011;54685;52.082;5.426;2022-11-25T15:06:39;16.48;;;4.68;;
67889;SDS011;54685;52.082;5.426;2022-11-25T15:09:18;20.30;;;5.50;;
67889;SDS011;54685;52.082;5.426;2022-11-25T15:11:57;15.77;;;4.10;;
67889;SDS011;54685;52.082;5.426;2022-11-25T15:14:28;15.65;;;3.38;;
67889;SDS011;54685;52.082;5.426;2022-11-25T15:17:07;21.48;;;3.25;;
67889;SDS011;54685;52.082;5.426;2022-11-25T15:19:42;14.10;;;3.08;;
67889;SDS011;54685;52.082;5.426;2022-11-25T15:22:12;16.23;;;2.85;;
67889;SDS011;54685;52.082;5.426;2022-11-25T15:24:51;15.13;;;2.88;;
67889;SDS011;54685;52.082;5.426;2022-11-25T15:27:25;15.20;;;2.38;;
67889;SDS011;54685;52.082;5.426;2022-11-25T15:29:54;16.83;;;2.47;;
67889;SDS011;54685;52.082;5.426;2022-11-25T15:34:53;13.32;;;2.80;;
67889;SDS011;54685;52.082;5.426;2022-11-25T15:37:22;19.55;;;2.83;;
67889;SDS011;54685;52.082;5.426;2022-11-25T15:39:50;18.65;;;3.42;;
67889;SDS011;54685;52.082;5.426;2022-11-25T15:42:55;17.15;;;3.25;;
67889;SDS011;54685;52.082;5.426;2022-11-25T15:45:26;20.90;;;3.53;;
67889;SDS011;54685;52.082;5.426;2022-11-25T15:47:58;22.02;;;3.05;;
67889;SDS011;54685;52.082;5.426;2022-11-25T15:50:25;18.75;;;3.80;;
67889;SDS011;54685;52.082;5.426;2022-11-25T15:52:54;18.13;;;2.80;;
67889;SDS011;54685;52.082;5.426;2022-11-25T15:55:36;15.30;;;3.75;;
67889;SDS011;54685;52.082;5.426;2022-11-25T15:58:06;29.65;;;11.40;;
67889;SDS011;54685;52.082;5.426;2022-11-25T16:00:36;20.17;;;4.47;;
67889;SDS011;54685;52.082;5.426;2022-11-25T16:03:19;17.77;;;4.38;;
67889;SDS011;54685;52.082;5.426;2022-11-25T16:05:53;13.07;;;3.03;;
67889;SDS011;54685;52.082;5.426;2022-11-25T16:13:40;12.15;;;3.33;;
67889;SDS011;54685;52.082;5.426;2022-11-25T16:27:04;14.98;;;3.67;;
67889;SDS011;54685;52.082;5.426;2022-11-25T16:29:33;19.65;;;4.28;;
67889;SDS011;54685;52.082;5.426;2022-11-25T16:32:27;21.70;;;4.90;;
67889;SDS011;54685;52.082;5.426;2022-11-25T16:34:56;20.77;;;4.82;;
67889;SDS011;54685;52.082;5.426;2022-11-25T16:37:35;20.33;;;4.82;;
67889;SDS011;54685;52.082;5.426;2022-11-25T16:40:02;17.17;;;5.30;;
67889;SDS011;54685;52.082;5.426;2022-11-25T16:42:30;25.38;;;5.93;;
67889;SDS011;54685;52.082;5.426;2022-11-25T16:44:57;25.25;;;5.38;;
67889;SDS011;54685;52.082;5.426;2022-11-25T16:47:26;23.13;;;5.80;;
67889;SDS011;54685;52.082;5.426;2022-11-25T16:49:53;24.65;;;6.10;;
67889;SDS011;54685;52.082;5.426;2022-11-25T16:52:19;17.95;;;5.50;;
67889;SDS011;54685;52.082;5.426;2022-11-25T16:54:47;23.48;;;5.50;;
67889;SDS011;54685;52.082;5.426;2022-11-25T16:57:18;19.23;;;6.40;;
67889;SDS011;54685;52.082;5.426;2022-11-25T16:59:47;22.20;;;6.28;;
67889;SDS011;54685;52.082;5.426;2022-11-25T17:02:21;17.60;;;5.40;;
67889;SDS011;54685;52.082;5.426;2022-11-25T17:04:48;20.80;;;5.93;;
67889;SDS011;54685;52.082;5.426;2022-11-25T17:07:16;26.60;;;7.07;;
67889;SDS011;54685;52.082;5.426;2022-11-25T17:10:00;18.23;;;6.22;;